createdAt,value
2022-10-22T00:01:04.711Z,10.20
2022-10-22T00:03:31.779Z,10.20
2022-10-22T00:05:58.717Z,10.10
2022-10-22T00:08:25.551Z,10.00
2022-10-22T00:10:52.866Z,10.00
2022-10-22T00:13:20.266Z,10.00
2022-10-22T00:15:46.935Z,10.00
2022-10-22T00:18:14.498Z,10.00
2022-10-22T00:20:41.092Z,9.90
2022-10-22T00:23:07.867Z,10.00
2022-10-22T00:25:35.982Z,10.00
2022-10-22T00:28:03.181Z,9.90
2022-10-22T00:30:29.852Z,10.00
2022-10-22T00:32:56.508Z,9.90
2022-10-22T00:35:23.217Z,10.00
2022-10-22T00:37:49.887Z,10.20
2022-10-22T00:40:16.513Z,10.20
2022-10-22T00:42:43.413Z,10.10
2022-10-22T00:45:10.257Z,10.10
2022-10-22T00:47:45.256Z,10.00
2022-10-22T00:50:14.094Z,10.00
2022-10-22T00:52:41.112Z,10.00
2022-10-22T00:55:08.686Z,10.00
2022-10-22T00:57:36.592Z,10.00
2022-10-22T01:00:05.554Z,9.90
2022-10-22T01:02:32.322Z,9.80
2022-10-22T01:04:58.981Z,9.80
2022-10-22T01:07:26.452Z,9.90
2022-10-22T01:10:04.769Z,9.80
2022-10-22T01:12:52.602Z,9.80
2022-10-22T01:15:45.825Z,9.90
2022-10-22T01:18:45.031Z,9.90
2022-10-22T01:21:31.441Z,10.10
2022-10-22T01:24:16.752Z,10.00
2022-10-22T01:27:15.457Z,10.10
2022-10-22T01:30:01.892Z,10.10
2022-10-22T01:32:31.020Z,10.10
2022-10-22T01:35:07.361Z,10.00
2022-10-22T01:37:38.863Z,10.10
2022-10-22T01:40:08.759Z,10.00
2022-10-22T01:42:35.545Z,10.00
2022-10-22T01:45:02.180Z,10.00
2022-10-22T01:47:50.494Z,10.00
2022-10-22T01:50:36.961Z,10.00
2022-10-22T01:53:40.090Z,9.90
2022-10-22T01:56:42.436Z,9.90
2022-10-22T01:59:38.056Z,9.90
2022-10-22T02:02:32.443Z,10.00
2022-10-22T02:05:07.195Z,10.00
2022-10-22T02:07:43.303Z,10.00
2022-10-22T02:10:11.830Z,9.90
2022-10-22T02:12:40.102Z,10.00
2022-10-22T02:15:09.015Z,10.10
2022-10-22T02:17:38.383Z,10.10
2022-10-22T02:20:27.938Z,10.20
2022-10-22T02:22:55.887Z,10.20
2022-10-22T02:25:25.583Z,10.20
2022-10-22T02:28:11.339Z,10.10
2022-10-22T02:30:41.124Z,10.00
2022-10-22T02:33:24.377Z,10.10
2022-10-22T02:35:51.955Z,10.10
2022-10-22T02:38:19.445Z,10.10
2022-10-22T02:40:46.869Z,10.20
2022-10-22T02:43:13.748Z,10.20
2022-10-22T02:45:40.590Z,10.10
2022-10-22T02:48:07.446Z,10.00
2022-10-22T02:50:34.248Z,9.90
2022-10-22T02:53:00.913Z,9.90
2022-10-22T02:55:27.568Z,9.90
2022-10-22T02:57:54.186Z,9.90
2022-10-22T03:00:22.016Z,9.90
2022-10-22T03:02:48.973Z,9.90
2022-10-22T03:05:15.726Z,10.00
2022-10-22T03:07:42.614Z,10.10
2022-10-22T03:10:09.797Z,10.20
2022-10-22T03:12:36.476Z,10.10
2022-10-22T03:15:03.482Z,10.10
2022-10-22T03:17:30.711Z,10.00
2022-10-22T03:19:57.337Z,9.90
2022-10-22T03:22:29.166Z,9.90
2022-10-22T03:25:00.554Z,9.90
2022-10-22T03:27:29.315Z,10.00
2022-10-22T03:29:57.963Z,10.10
2022-10-22T03:32:24.589Z,10.20
2022-10-22T03:34:51.329Z,10.30
2022-10-22T03:37:18.407Z,10.40
2022-10-22T03:39:45.298Z,10.30
2022-10-22T03:42:13.248Z,10.20
2022-10-22T03:44:40.828Z,10.20
2022-10-22T03:47:08.047Z,10.20
2022-10-22T03:49:34.678Z,10.10
2022-10-22T03:52:13.308Z,10.20
2022-10-22T03:54:40.430Z,10.20
2022-10-22T03:57:07.903Z,10.10
2022-10-22T03:59:40.180Z,10.10
2022-10-22T04:02:06.860Z,10.00
2022-10-22T04:04:33.611Z,10.10
2022-10-22T04:07:00.308Z,10.10
2022-10-22T04:09:26.960Z,10.10
2022-10-22T04:11:53.630Z,10.20
2022-10-22T04:14:20.412Z,10.20
2022-10-22T04:16:47.058Z,10.30
2022-10-22T04:19:14.560Z,10.40
2022-10-22T04:21:41.245Z,10.40
2022-10-22T04:24:08.066Z,10.40
2022-10-22T04:26:34.676Z,10.40
2022-10-22T04:29:01.411Z,10.40
2022-10-22T04:31:28.283Z,10.20
2022-10-22T04:33:57.147Z,10.10
2022-10-22T04:36:24.952Z,10.10
2022-10-22T04:38:57.756Z,10.20
2022-10-22T04:41:31.856Z,10.30
2022-10-22T04:43:59.638Z,10.40
2022-10-22T04:46:28.904Z,10.50
2022-10-22T04:48:55.711Z,10.50
2022-10-22T04:51:24.538Z,10.50
2022-10-22T04:53:51.403Z,10.70
2022-10-22T04:56:25.620Z,10.50
2022-10-22T04:59:01.306Z,10.50
2022-10-22T05:01:42.666Z,10.70
2022-10-22T05:04:12.803Z,10.70
2022-10-22T05:06:39.492Z,10.70
2022-10-22T05:09:13.896Z,10.60
2022-10-22T05:11:45.193Z,10.50
2022-10-22T05:14:12.529Z,10.50
2022-10-22T05:16:39.503Z,10.50
2022-10-22T05:19:07.464Z,10.40
2022-10-22T05:21:34.545Z,10.30
2022-10-22T05:24:01.234Z,10.20
2022-10-22T05:26:28.863Z,10.20
2022-10-22T05:28:55.872Z,10.30
2022-10-22T05:31:22.678Z,10.30
2022-10-22T05:33:49.705Z,10.30
2022-10-22T05:36:19.167Z,10.40
2022-10-22T05:38:46.078Z,10.40
2022-10-22T05:41:18.356Z,10.20
2022-10-22T05:43:45.829Z,10.00
2022-10-22T05:46:22.235Z,10.00
2022-10-22T05:48:51.442Z,9.90
2022-10-22T05:51:18.819Z,9.90
2022-10-22T05:53:45.526Z,9.80
2022-10-22T05:56:15.000Z,9.90
2022-10-22T05:58:43.186Z,9.70
2022-10-22T06:01:15.935Z,9.90
2022-10-22T06:03:43.127Z,9.90
2022-10-22T06:06:22.464Z,9.90
2022-10-22T06:08:51.860Z,10.00
2022-10-22T06:11:23.414Z,10.00
2022-10-22T06:13:50.989Z,10.10
2022-10-22T06:16:17.977Z,10.20
2022-10-22T06:18:44.679Z,10.30
2022-10-22T06:21:14.191Z,10.40
2022-10-22T06:23:42.022Z,10.40
2022-10-22T06:26:09.695Z,10.40
2022-10-22T06:28:37.067Z,10.50
2022-10-22T06:31:04.392Z,10.30
2022-10-22T06:33:33.942Z,10.20
2022-10-22T06:36:18.300Z,10.00
2022-10-22T06:38:45.487Z,10.10
2022-10-22T06:41:14.973Z,10.10
2022-10-22T06:43:46.788Z,10.20
2022-10-22T06:46:20.293Z,10.30
2022-10-22T06:48:56.138Z,10.40
2022-10-22T06:51:22.903Z,10.40
2022-10-22T06:53:49.926Z,10.40
2022-10-22T06:56:19.456Z,10.40
2022-10-22T06:58:51.130Z,10.40
2022-10-22T07:01:20.476Z,10.50
2022-10-22T07:03:47.543Z,10.60
2022-10-22T07:06:15.168Z,10.60
2022-10-22T07:08:42.590Z,10.60
2022-10-22T07:11:21.420Z,10.60
2022-10-22T07:13:48.722Z,10.50
2022-10-22T07:16:16.856Z,10.50
2022-10-22T07:18:44.764Z,10.50
2022-10-22T07:21:12.715Z,10.60
2022-10-22T07:23:39.917Z,10.80
2022-10-22T07:26:08.387Z,10.80
2022-10-22T07:28:37.843Z,11.00
2022-10-22T07:31:04.707Z,11.00
2022-10-22T07:33:31.486Z,11.00
2022-10-22T07:36:03.490Z,11.10
2022-10-22T07:38:31.533Z,11.20
2022-10-22T07:40:58.499Z,11.40
2022-10-22T07:43:25.506Z,11.60
2022-10-22T07:45:52.168Z,11.70
2022-10-22T07:48:18.822Z,11.80
2022-10-22T07:50:45.441Z,11.90
2022-10-22T07:53:12.205Z,12.10
2022-10-22T07:55:38.937Z,12.20
2022-10-22T07:58:05.532Z,12.30
2022-10-22T08:00:32.183Z,12.40
2022-10-22T08:02:58.956Z,12.60
2022-10-22T08:05:25.987Z,12.80
2022-10-22T08:07:52.628Z,12.90
2022-10-22T08:10:19.485Z,13.00
2022-10-22T08:12:46.255Z,13.30
2022-10-22T08:15:12.972Z,13.70
2022-10-22T08:17:40.053Z,14.00
2022-10-22T08:20:07.696Z,14.20
2022-10-22T08:22:34.332Z,14.60
2022-10-22T08:25:00.983Z,14.80
2022-10-22T08:27:27.651Z,15.10
2022-10-22T08:29:54.405Z,15.20
2022-10-22T08:32:21.239Z,15.30
2022-10-22T08:34:48.188Z,15.50
2022-10-22T08:37:16.953Z,15.70
2022-10-22T08:39:44.364Z,15.80
2022-10-22T08:42:17.145Z,16.00
2022-10-22T08:44:59.257Z,16.10
2022-10-22T08:47:59.121Z,16.40
2022-10-22T08:50:39.649Z,16.60
2022-10-22T08:53:13.378Z,16.70
2022-10-22T08:55:40.738Z,16.70
2022-10-22T08:58:35.638Z,16.70
2022-10-22T09:01:13.702Z,16.80
2022-10-22T09:03:49.503Z,16.90
2022-10-22T09:06:27.853Z,17.00
2022-10-22T09:08:57.102Z,17.10
2022-10-22T09:11:23.770Z,17.20
2022-10-22T09:13:51.245Z,17.30
2022-10-22T09:16:22.159Z,17.20
2022-10-22T09:19:14.472Z,17.20
2022-10-22T09:22:07.996Z,17.30
2022-10-22T09:24:40.010Z,17.40
2022-10-22T09:27:25.716Z,17.50
2022-10-22T09:29:52.429Z,17.60
2022-10-22T09:32:19.676Z,17.60
2022-10-22T09:34:48.221Z,17.70
2022-10-22T09:37:23.390Z,17.70
2022-10-22T09:39:55.183Z,17.60
2022-10-22T09:42:22.512Z,17.40
2022-10-22T09:44:54.824Z,17.20
2022-10-22T09:48:01.139Z,17.20
2022-10-22T09:50:38.238Z,17.20
2022-10-22T09:53:18.543Z,17.20
2022-10-22T09:55:51.712Z,17.20
2022-10-22T09:58:19.782Z,17.20
2022-10-22T10:00:52.438Z,17.30
2022-10-22T10:03:23.088Z,17.30
2022-10-22T10:05:54.483Z,17.50
2022-10-22T10:08:22.052Z,17.50
2022-10-22T10:10:59.861Z,17.50
2022-10-22T10:13:54.055Z,17.60
2022-10-22T10:16:29.945Z,17.70
2022-10-22T10:19:31.284Z,17.60
2022-10-22T10:22:01.572Z,17.60
2022-10-22T10:24:41.527Z,17.70
2022-10-22T10:27:21.888Z,17.80
2022-10-22T10:30:08.919Z,17.80
2022-10-22T10:33:19.548Z,17.80
2022-10-22T10:35:48.898Z,17.70
2022-10-22T10:38:39.810Z,17.80
2022-10-22T10:41:17.191Z,18.00
2022-10-22T10:44:05.255Z,18.20
2022-10-22T10:47:05.954Z,18.40
2022-10-22T10:49:36.878Z,18.20
2022-10-22T10:52:21.378Z,17.80
2022-10-22T10:55:01.694Z,17.80
2022-10-22T10:57:49.288Z,17.80
2022-10-22T11:00:21.111Z,17.60
2022-10-22T11:03:16.046Z,17.50
2022-10-22T11:05:53.174Z,17.30
2022-10-22T11:08:22.548Z,17.30
2022-10-22T11:10:54.675Z,17.20
2022-10-22T11:13:38.727Z,17.10
2022-10-22T11:16:17.263Z,17.10
2022-10-22T11:18:56.883Z,17.20
2022-10-22T11:21:32.392Z,17.70
2022-10-22T11:24:08.448Z,18.20
2022-10-22T11:26:47.072Z,18.50
2022-10-22T11:29:21.478Z,18.70
2022-10-22T11:31:49.258Z,18.70
2022-10-22T11:34:33.107Z,18.50
2022-10-22T11:37:02.586Z,18.60
2022-10-22T11:39:35.258Z,18.50
2022-10-22T11:42:10.051Z,18.30
2022-10-22T11:45:06.851Z,18.30
2022-10-22T11:47:41.937Z,18.10
2022-10-22T11:50:19.979Z,17.90
2022-10-22T11:53:02.055Z,17.80
2022-10-22T11:55:55.329Z,17.80
2022-10-22T11:58:30.593Z,17.80
2022-10-22T12:01:28.411Z,17.80
2022-10-22T12:03:58.101Z,17.80
2022-10-22T12:06:26.650Z,17.60
2022-10-22T12:08:53.332Z,17.40
2022-10-22T12:11:19.971Z,17.30
2022-10-22T12:14:01.751Z,17.10
2022-10-22T12:16:55.319Z,17.00
2022-10-22T12:19:23.009Z,16.90
2022-10-22T12:21:54.438Z,16.90
2022-10-22T12:24:24.472Z,16.90
2022-10-22T12:26:52.431Z,16.80
2022-10-22T12:29:23.564Z,16.70
2022-10-22T12:31:50.267Z,16.70
2022-10-22T12:34:21.301Z,16.60
2022-10-22T12:36:50.281Z,16.20
2022-10-22T12:39:20.211Z,16.00
2022-10-22T12:41:47.420Z,15.80
2022-10-22T12:44:17.345Z,15.50
2022-10-22T12:46:46.653Z,15.40
2022-10-22T12:49:25.815Z,15.30
2022-10-22T12:51:53.152Z,15.20
2022-10-22T12:54:28.647Z,15.20
2022-10-22T12:56:56.843Z,15.20
2022-10-22T12:59:32.429Z,15.20
2022-10-22T13:01:59.363Z,15.30
2022-10-22T13:04:36.433Z,15.30
2022-10-22T13:07:12.235Z,15.30
2022-10-22T13:09:40.071Z,15.30
2022-10-22T13:12:10.539Z,15.20
2022-10-22T13:14:38.538Z,15.20
2022-10-22T13:17:16.979Z,15.20
2022-10-22T13:19:48.521Z,15.20
2022-10-22T13:22:26.915Z,15.20
2022-10-22T13:24:54.286Z,15.30
2022-10-22T13:27:20.988Z,15.40
2022-10-22T13:29:47.656Z,15.30
2022-10-22T13:32:41.660Z,15.30
2022-10-22T13:35:15.077Z,15.40
2022-10-22T13:37:41.829Z,15.50
2022-10-22T13:40:15.733Z,15.50
2022-10-22T13:42:42.746Z,15.60
2022-10-22T13:45:09.827Z,15.70
2022-10-22T13:47:36.536Z,15.70
2022-10-22T13:50:07.212Z,15.70
2022-10-22T13:52:42.237Z,15.70
2022-10-22T13:55:25.509Z,15.70
2022-10-22T13:58:13.845Z,15.70
2022-10-22T14:00:43.868Z,15.70
2022-10-22T14:03:13.289Z,15.70
2022-10-22T14:05:40.028Z,15.60
2022-10-22T14:08:18.241Z,15.50
2022-10-22T14:10:45.139Z,15.50
2022-10-22T14:13:13.537Z,15.50
2022-10-22T14:15:41.334Z,15.50
2022-10-22T14:18:11.478Z,15.40
2022-10-22T14:20:40.929Z,15.40
2022-10-22T14:25:52.633Z,15.40
2022-10-22T14:28:19.859Z,15.50
2022-10-22T14:30:47.625Z,15.60
2022-10-22T14:33:32.663Z,15.60
2022-10-22T14:36:00.466Z,15.60
2022-10-22T14:38:27.802Z,15.60
2022-10-22T14:40:54.735Z,15.60
2022-10-22T14:43:26.915Z,15.60
2022-10-22T14:45:53.950Z,15.60
2022-10-22T14:48:20.666Z,15.60
2022-10-22T14:50:48.515Z,15.60
2022-10-22T14:53:16.672Z,15.70
2022-10-22T14:55:44.754Z,15.70
2022-10-22T14:58:12.249Z,15.70
2022-10-22T15:00:41.433Z,15.70
2022-10-22T15:03:08.116Z,15.60
2022-10-22T15:05:36.145Z,15.60
2022-10-22T15:08:03.135Z,15.60
2022-10-22T15:10:29.747Z,15.50
2022-10-22T15:12:56.377Z,15.50
2022-10-22T15:15:23.791Z,15.40
2022-10-22T15:17:52.246Z,15.30
2022-10-22T15:20:18.917Z,15.20
2022-10-22T15:22:45.602Z,15.20
2022-10-22T15:25:13.520Z,15.20
2022-10-22T15:27:40.291Z,15.20
2022-10-22T15:30:08.091Z,15.20
2022-10-22T15:32:34.775Z,15.20
2022-10-22T15:35:01.678Z,15.20
2022-10-22T15:37:28.355Z,15.20
2022-10-22T15:39:55.043Z,15.20
2022-10-22T15:42:23.148Z,15.10
2022-10-22T15:44:56.614Z,15.10
2022-10-22T15:47:25.151Z,15.10
2022-10-22T15:49:51.911Z,15.00
2022-10-22T15:52:18.732Z,15.00
2022-10-22T15:54:45.519Z,15.00
2022-10-22T15:57:12.181Z,14.90
2022-10-22T15:59:38.907Z,14.90
2022-10-22T16:02:07.169Z,14.90
2022-10-22T16:04:33.832Z,14.80
2022-10-22T16:07:00.577Z,14.80
2022-10-22T16:09:27.929Z,14.80
2022-10-22T16:11:55.836Z,14.80
2022-10-22T16:14:23.974Z,14.80
2022-10-22T16:16:52.712Z,14.80
2022-10-22T16:19:21.825Z,14.70
2022-10-22T16:21:53.886Z,14.70
2022-10-22T16:24:21.132Z,14.70
2022-10-22T16:26:48.328Z,14.70
2022-10-22T16:29:15.125Z,14.70
2022-10-22T16:31:43.517Z,14.70
2022-10-22T16:34:10.519Z,14.70
2022-10-22T16:36:38.135Z,14.70
2022-10-22T16:39:05.966Z,14.70
2022-10-22T16:41:36.205Z,14.60
2022-10-22T16:44:06.043Z,14.60
2022-10-22T16:46:33.547Z,14.50
2022-10-22T16:49:00.359Z,14.60
2022-10-22T16:51:28.125Z,14.50
2022-10-22T16:53:56.503Z,14.40
2022-10-22T16:56:24.132Z,14.30
2022-10-22T16:58:53.660Z,14.20
2022-10-22T17:01:29.633Z,14.10
2022-10-22T17:03:59.140Z,14.10
2022-10-22T17:06:26.648Z,14.10
2022-10-22T17:08:54.015Z,14.00
2022-10-22T17:11:23.241Z,14.00
2022-10-22T17:13:54.177Z,13.90
2022-10-22T17:16:24.823Z,13.80
2022-10-22T17:18:53.732Z,13.70
2022-10-22T17:21:21.491Z,13.60
2022-10-22T17:23:49.382Z,13.50
2022-10-22T17:26:20.244Z,13.40
2022-10-22T17:28:47.819Z,13.30
2022-10-22T17:31:32.484Z,13.20
2022-10-22T17:33:59.910Z,13.10
2022-10-22T17:36:30.439Z,13.00
2022-10-22T17:39:02.015Z,12.90
2022-10-22T17:41:34.110Z,12.70
2022-10-22T17:44:04.581Z,12.60
2022-10-22T17:46:32.356Z,12.50
2022-10-22T17:49:03.799Z,12.40
2022-10-22T17:51:31.862Z,12.30
2022-10-22T17:53:58.947Z,12.10
2022-10-22T17:56:27.926Z,12.00
2022-10-22T17:58:55.472Z,12.00
2022-10-22T18:01:33.761Z,11.90
2022-10-22T18:04:03.563Z,11.90
2022-10-22T18:06:30.648Z,11.90
2022-10-22T18:08:57.610Z,11.90
2022-10-22T18:11:27.909Z,11.80
2022-10-22T18:13:56.639Z,11.80
2022-10-22T18:16:23.530Z,11.70
2022-10-22T18:18:53.055Z,11.50
2022-10-22T18:21:20.878Z,11.50
2022-10-22T18:23:47.554Z,11.60
2022-10-22T18:26:15.528Z,11.60
2022-10-22T18:28:42.264Z,11.40
2022-10-22T18:31:12.301Z,11.30
2022-10-22T18:33:39.986Z,11.20
2022-10-22T18:36:10.514Z,11.10
2022-10-22T18:38:38.246Z,11.10
2022-10-22T18:41:13.132Z,11.00
2022-10-22T18:43:39.864Z,10.90
2022-10-22T18:46:07.750Z,10.90
2022-10-22T18:48:35.506Z,10.90
2022-10-22T18:51:09.478Z,10.90
2022-10-22T18:53:37.296Z,10.90
2022-10-22T18:56:08.960Z,10.90
2022-10-22T18:58:39.752Z,10.80
2022-10-22T19:01:08.646Z,10.80
2022-10-22T19:03:35.460Z,10.70
2022-10-22T19:06:02.072Z,10.70
2022-10-22T19:08:28.905Z,10.70
2022-10-22T19:10:55.539Z,10.70
2022-10-22T19:13:23.315Z,10.60
2022-10-22T19:15:49.958Z,10.40
2022-10-22T19:18:16.624Z,10.30
2022-10-22T19:20:46.401Z,10.20
2022-10-22T19:23:17.206Z,10.10
2022-10-22T19:25:47.261Z,10.10
2022-10-22T19:28:13.873Z,10.10
2022-10-22T19:30:44.444Z,10.10
2022-10-22T19:33:11.185Z,10.10
2022-10-22T19:35:37.865Z,10.10
2022-10-22T19:38:04.515Z,10.10
2022-10-22T19:40:31.122Z,10.00
2022-10-22T19:42:57.782Z,10.10
2022-10-22T19:45:24.530Z,10.20
2022-10-22T19:47:51.175Z,10.20
2022-10-22T19:50:17.914Z,10.10
2022-10-22T19:52:44.710Z,10.20
2022-10-22T19:55:11.609Z,10.20
2022-10-22T19:57:38.772Z,10.10
2022-10-22T20:00:06.414Z,10.00
2022-10-22T20:02:36.948Z,10.00
2022-10-22T20:05:03.939Z,10.00
2022-10-22T20:07:30.586Z,10.00
2022-10-22T20:09:57.269Z,10.00
2022-10-22T20:12:23.975Z,10.00
2022-10-22T20:14:51.562Z,9.90
2022-10-22T20:17:18.269Z,9.80
2022-10-22T20:19:44.952Z,9.80
2022-10-22T20:22:14.962Z,9.70
2022-10-22T20:24:45.000Z,9.70
2022-10-22T20:27:13.044Z,9.80
2022-10-22T20:29:39.718Z,9.90
2022-10-22T20:32:08.741Z,9.90
2022-10-22T20:34:35.676Z,9.70
2022-10-22T20:37:02.584Z,9.50
2022-10-22T20:39:29.275Z,9.70
2022-10-22T20:41:55.902Z,9.70
2022-10-22T20:44:22.576Z,9.70
2022-10-22T20:46:51.106Z,9.60
2022-10-22T20:49:20.513Z,9.60
2022-10-22T20:51:47.458Z,9.60
2022-10-22T20:54:15.028Z,9.50
2022-10-22T20:56:42.549Z,9.40
2022-10-22T20:59:10.932Z,9.40
2022-10-22T21:01:55.827Z,9.30
2022-10-22T21:04:22.600Z,9.30
2022-10-22T21:06:50.388Z,9.40
2022-10-22T21:09:17.240Z,9.30
2022-10-22T21:11:44.088Z,9.10
2022-10-22T21:14:12.690Z,9.10
2022-10-22T21:16:50.587Z,9.30
2022-10-22T21:19:18.584Z,9.40
2022-10-22T21:21:45.296Z,9.50
2022-10-22T21:24:12.461Z,9.60
2022-10-22T21:26:40.702Z,9.70
2022-10-22T21:29:08.740Z,9.70
2022-10-22T21:31:35.436Z,9.70
2022-10-22T21:34:02.063Z,9.60
2022-10-22T21:36:29.108Z,9.60
2022-10-22T21:38:55.885Z,9.60
2022-10-22T21:41:23.776Z,9.70
2022-10-22T21:43:51.216Z,9.70
2022-10-22T21:46:23.218Z,9.70
2022-10-22T21:48:55.711Z,9.60
2022-10-22T21:51:24.234Z,9.60
2022-10-22T21:56:21.580Z,9.50
2022-10-22T21:58:48.227Z,9.40
2022-10-22T22:01:15.654Z,9.30
2022-10-22T22:03:45.372Z,9.40
2022-10-22T22:06:12.931Z,9.40
2022-10-22T22:08:40.169Z,9.30
2022-10-22T22:11:09.481Z,9.30
2022-10-22T22:13:36.456Z,9.20
2022-10-22T22:16:09.152Z,9.30
2022-10-22T22:18:38.503Z,9.40
2022-10-22T22:21:07.964Z,9.60
2022-10-22T22:23:37.418Z,9.70
2022-10-22T22:26:05.181Z,9.80
2022-10-22T22:28:33.407Z,9.80
2022-10-22T22:31:00.405Z,9.80
2022-10-22T22:33:27.540Z,9.70
2022-10-22T22:35:58.730Z,9.90
2022-10-22T22:38:25.397Z,10.00
2022-10-22T22:40:51.995Z,10.10
2022-10-22T22:43:18.712Z,10.20
2022-10-22T22:45:45.384Z,10.20
2022-10-22T22:48:11.974Z,10.20
2022-10-22T22:50:38.639Z,10.30
2022-10-22T22:53:05.245Z,10.20
2022-10-22T22:55:32.338Z,10.10
2022-10-22T22:57:58.982Z,10.00
2022-10-22T23:00:25.770Z,10.00
2022-10-22T23:02:55.824Z,10.30
2022-10-22T23:05:22.648Z,10.40
2022-10-22T23:07:49.327Z,10.40
2022-10-22T23:10:16.139Z,10.50
2022-10-22T23:12:43.463Z,10.50
2022-10-22T23:15:10.935Z,10.50
2022-10-22T23:17:38.422Z,10.50
2022-10-22T23:20:05.675Z,10.50
2022-10-22T23:22:32.388Z,10.60
2022-10-22T23:24:59.056Z,10.50
2022-10-22T23:27:25.734Z,10.60
2022-10-22T23:29:52.355Z,10.50
2022-10-22T23:32:19.078Z,10.50
2022-10-22T23:34:45.701Z,10.40
2022-10-22T23:37:12.468Z,10.40
2022-10-22T23:39:39.144Z,10.50
2022-10-22T23:42:05.865Z,10.50
2022-10-22T23:44:32.642Z,10.60
2022-10-22T23:46:59.322Z,10.60
2022-10-22T23:49:26.016Z,10.60
2022-10-22T23:51:52.699Z,10.70
2022-10-22T23:54:19.716Z,10.60
2022-10-22T23:56:47.087Z,10.60
